createdAt,value
2019-05-07T00:00:06.278Z,14.65
2019-05-07T00:02:37.097Z,12.75
2019-05-07T00:05:07.445Z,14.73
2019-05-07T00:07:38.007Z,15.95
2019-05-07T00:10:10.117Z,14.93
2019-05-07T00:12:40.357Z,15.65
2019-05-07T00:15:12.608Z,15.72
2019-05-07T00:17:43.279Z,16.67
2019-05-07T00:20:15.317Z,15.95
2019-05-07T00:22:46.129Z,13.28
2019-05-07T00:25:16.943Z,14.13
2019-05-07T00:27:47.628Z,16.67
2019-05-07T00:30:18.498Z,21.10
2019-05-07T00:32:48.798Z,15.63
2019-05-07T00:35:36.326Z,15.30
2019-05-07T00:38:12.907Z,14.50
2019-05-07T00:40:44.934Z,16.57
2019-05-07T00:43:17.192Z,14.68
2019-05-07T00:45:49.922Z,14.83
2019-05-07T00:48:20.582Z,13.45
2019-05-07T00:50:53.327Z,15.58
2019-05-07T00:53:23.904Z,16.85
2019-05-07T00:55:55.156Z,15.08
2019-05-07T00:58:26.905Z,18.15
2019-05-07T01:00:57.812Z,15.50
2019-05-07T01:03:28.514Z,14.47
2019-05-07T01:06:02.064Z,15.83
2019-05-07T01:08:32.392Z,13.08
2019-05-07T01:11:02.991Z,17.00
2019-05-07T01:13:33.811Z,18.42
2019-05-07T01:16:04.737Z,15.25
2019-05-07T01:18:35.017Z,14.73
2019-05-07T01:21:05.245Z,15.48
2019-05-07T01:23:35.489Z,17.02
2019-05-07T01:26:06.050Z,15.58
2019-05-07T01:28:54.883Z,15.30
2019-05-07T01:31:27.176Z,23.18
2019-05-07T01:33:59.666Z,17.30
2019-05-07T01:36:31.915Z,18.20
2019-05-07T01:39:02.700Z,16.90
2019-05-07T01:41:34.642Z,16.85
2019-05-07T01:44:05.742Z,21.17
2019-05-07T01:46:36.542Z,19.05
2019-05-07T01:49:07.173Z,17.48
2019-05-07T01:51:37.511Z,20.05
2019-05-07T01:54:08.066Z,18.27
2019-05-07T01:56:38.725Z,18.92
2019-05-07T01:59:09.073Z,16.65
2019-05-07T02:01:39.356Z,20.43
2019-05-07T02:04:17.270Z,16.00
2019-05-07T02:07:05.522Z,19.10
2019-05-07T02:09:46.722Z,19.87
2019-05-07T02:12:28.021Z,22.55
2019-05-07T02:14:58.726Z,16.07
2019-05-07T02:17:29.043Z,21.20
2019-05-07T02:20:02.670Z,17.12
2019-05-07T02:22:34.743Z,22.35
2019-05-07T02:25:07.232Z,17.90
2019-05-07T02:27:38.920Z,17.47
2019-05-07T02:30:14.398Z,18.77
2019-05-07T02:32:43.609Z,17.82
2019-05-07T02:35:16.276Z,18.67
2019-05-07T02:37:55.658Z,20.57
2019-05-07T02:40:24.862Z,20.88
2019-05-07T02:42:55.493Z,21.20
2019-05-07T02:45:33.157Z,16.32
2019-05-07T02:48:03.560Z,19.60
2019-05-07T02:50:39.907Z,19.57
2019-05-07T02:53:17.699Z,18.92
2019-05-07T02:55:48.102Z,17.85
2019-05-07T02:58:18.679Z,23.57
2019-05-07T03:00:48.963Z,19.65
2019-05-07T03:03:19.212Z,26.40
2019-05-07T03:05:49.496Z,20.20
2019-05-07T03:08:23.597Z,19.95
2019-05-07T03:10:52.841Z,23.92
2019-05-07T03:13:24.167Z,22.87
2019-05-07T03:15:55.219Z,18.48
2019-05-07T03:18:25.775Z,22.45
2019-05-07T03:21:03.614Z,20.32
2019-05-07T03:23:36.647Z,22.75
2019-05-07T03:26:08.864Z,24.50
2019-05-07T03:28:53.210Z,18.80
2019-05-07T03:31:28.253Z,25.30
2019-05-07T03:34:09.479Z,19.70
2019-05-07T03:36:56.359Z,22.27
2019-05-07T03:39:27.555Z,25.97
2019-05-07T03:41:58.373Z,26.15
2019-05-07T03:44:46.201Z,23.70
2019-05-07T03:47:18.437Z,24.70
2019-05-07T03:49:49.734Z,21.35
2019-05-07T03:52:20.041Z,22.30
2019-05-07T03:54:50.296Z,26.52
2019-05-07T03:57:23.471Z,22.62
2019-05-07T03:59:53.484Z,28.15
2019-05-07T04:02:24.254Z,22.82
2019-05-07T04:04:55.137Z,22.95
2019-05-07T04:07:25.577Z,24.70
2019-05-07T04:09:55.838Z,20.48
2019-05-07T04:12:26.444Z,21.37
2019-05-07T04:14:58.394Z,18.35
2019-05-07T04:17:28.635Z,19.45
2019-05-07T04:19:58.838Z,21.48
2019-05-07T04:22:29.591Z,17.10
2019-05-07T04:25:04.481Z,21.90
2019-05-07T04:27:46.291Z,18.92
2019-05-07T04:30:15.076Z,17.80
2019-05-07T04:32:47.304Z,17.55
2019-05-07T04:35:19.298Z,16.57
2019-05-07T04:37:49.970Z,19.25
2019-05-07T04:40:23.697Z,15.40
2019-05-07T04:42:53.808Z,15.10
2019-05-07T04:45:24.507Z,15.70
2019-05-07T04:47:54.738Z,17.05
2019-05-07T04:50:41.977Z,17.70
2019-05-07T04:52:58.564Z,20.15
2019-05-07T04:55:28.778Z,20.85
2019-05-07T04:57:59.051Z,21.10
2019-05-07T05:00:29.286Z,14.98
2019-05-07T05:03:19.050Z,14.25
2019-05-07T05:05:52.914Z,16.62
2019-05-07T05:08:23.374Z,15.23
2019-05-07T05:10:54.213Z,21.45
2019-05-07T05:13:24.584Z,11.73
2019-05-07T05:15:54.757Z,18.27
2019-05-07T05:18:25.490Z,18.45
2019-05-07T05:20:57.409Z,14.50
2019-05-07T05:23:32.303Z,11.22
2019-05-07T05:26:02.735Z,13.05
2019-05-07T05:28:33.932Z,12.78
2019-05-07T05:31:06.179Z,31.10
2019-05-07T05:33:36.948Z,11.75
2019-05-07T05:36:07.317Z,12.58
2019-05-07T05:38:37.904Z,11.33
2019-05-07T05:41:08.214Z,16.42
2019-05-07T05:43:42.430Z,14.83
2019-05-07T05:46:16.318Z,15.87
2019-05-07T05:48:46.890Z,9.18
2019-05-07T05:51:26.129Z,18.87
2019-05-07T05:54:04.269Z,19.73
2019-05-07T05:56:45.411Z,22.25
2019-05-07T05:59:25.433Z,13.05
2019-05-07T06:02:06.328Z,11.93
2019-05-07T06:04:48.400Z,8.53
2019-05-07T06:07:35.123Z,13.45
2019-05-07T06:10:15.660Z,12.90
2019-05-07T06:12:47.531Z,8.18
2019-05-07T06:15:35.996Z,11.08
2019-05-07T06:18:20.364Z,9.48
2019-05-07T06:20:42.845Z,9.70
2019-05-07T06:23:24.588Z,13.70
2019-05-07T06:25:54.862Z,8.23
2019-05-07T06:28:25.988Z,15.95
2019-05-07T06:30:56.706Z,10.28
2019-05-07T06:33:27.343Z,15.75
2019-05-07T06:35:58.071Z,14.98
2019-05-07T06:38:31.577Z,7.65
2019-05-07T06:41:09.437Z,8.33
2019-05-07T06:43:42.253Z,13.75
2019-05-07T06:46:13.053Z,12.33
2019-05-07T06:48:46.140Z,23.52
2019-05-07T06:51:17.561Z,10.30
2019-05-07T06:53:47.314Z,12.58
2019-05-07T06:56:17.525Z,9.98
2019-05-07T06:58:49.387Z,10.75
2019-05-07T07:01:25.194Z,12.07
2019-05-07T07:03:58.387Z,14.50
2019-05-07T07:06:39.545Z,12.43
2019-05-07T07:09:12.931Z,10.55
2019-05-07T07:11:45.494Z,9.93
2019-05-07T07:14:15.736Z,10.28
2019-05-07T07:16:46.061Z,11.33
2019-05-07T07:19:17.548Z,8.98
2019-05-07T07:21:47.801Z,9.85
2019-05-07T07:24:18.599Z,12.88
2019-05-07T07:26:49.268Z,10.70
2019-05-07T07:29:22.003Z,12.63
2019-05-07T07:31:55.088Z,12.57
2019-05-07T07:34:27.047Z,11.38
2019-05-07T07:37:06.163Z,11.68
2019-05-07T07:39:32.297Z,11.65
2019-05-07T07:42:05.232Z,9.33
2019-05-07T07:44:35.879Z,9.78
2019-05-07T07:47:06.527Z,12.95
2019-05-07T07:49:37.442Z,13.70
2019-05-07T07:52:07.798Z,15.90
2019-05-07T07:54:38.485Z,9.88
2019-05-07T07:57:26.642Z,8.20
2019-05-07T08:00:02.585Z,10.80
2019-05-07T08:02:36.499Z,10.85
2019-05-07T08:05:07.928Z,7.95
2019-05-07T08:07:38.368Z,10.82
2019-05-07T08:10:10.259Z,8.35
2019-05-07T08:12:42.163Z,8.95
2019-05-07T08:15:20.301Z,13.32
2019-05-07T08:17:45.851Z,10.30
2019-05-07T08:20:18.390Z,11.35
2019-05-07T08:22:49.220Z,13.05
2019-05-07T08:25:21.848Z,11.68
2019-05-07T08:27:52.545Z,9.23
2019-05-07T08:30:27.132Z,9.68
2019-05-07T08:32:59.468Z,11.45
2019-05-07T08:35:34.507Z,7.95
2019-05-07T08:38:05.691Z,10.68
2019-05-07T08:40:35.925Z,8.25
2019-05-07T08:43:06.994Z,8.13
2019-05-07T08:45:56.547Z,11.15
2019-05-07T08:48:28.550Z,11.33
2019-05-07T08:50:58.894Z,7.20
2019-05-07T08:53:29.563Z,11.60
2019-05-07T08:56:00.031Z,7.83
2019-05-07T08:58:32.094Z,12.78
2019-05-07T09:01:03.029Z,7.33
2019-05-07T09:03:43.186Z,8.43
2019-05-07T09:06:17.373Z,11.50
2019-05-07T09:08:48.035Z,10.87
2019-05-07T09:11:20.389Z,10.13
2019-05-07T09:13:52.541Z,9.15
2019-05-07T09:16:23.372Z,12.65
2019-05-07T09:18:57.364Z,13.72
2019-05-07T09:21:28.118Z,7.08
2019-05-07T09:24:02.529Z,12.93
2019-05-07T09:26:44.437Z,10.45
2019-05-07T09:29:22.209Z,15.23
2019-05-07T09:31:52.800Z,11.28
2019-05-07T09:34:28.154Z,11.30
2019-05-07T09:37:02.227Z,9.75
2019-05-07T09:39:33.584Z,11.45
2019-05-07T09:42:04.242Z,9.60
2019-05-07T09:44:34.809Z,16.00
2019-05-07T09:47:06.274Z,17.87
2019-05-07T09:49:36.550Z,15.90
2019-05-07T09:52:06.855Z,10.53
2019-05-07T09:54:39.016Z,6.47
2019-05-07T09:57:26.843Z,18.32
2019-05-07T09:59:45.400Z,20.20
2019-05-07T10:04:46.095Z,17.15
2019-05-07T10:07:17.474Z,24.02
2019-05-07T10:09:47.751Z,5.12
2019-05-07T10:12:28.717Z,13.68
2019-05-07T10:15:00.274Z,17.75
2019-05-07T10:17:47.002Z,6.90
2019-05-07T10:20:22.528Z,12.30
2019-05-07T10:22:52.086Z,28.02
2019-05-07T10:25:22.599Z,24.70
2019-05-07T10:27:53.336Z,9.10
2019-05-07T10:30:25.515Z,7.55
2019-05-07T10:32:55.751Z,10.45
2019-05-07T10:35:26.412Z,8.85
2019-05-07T10:37:57.059Z,36.95
2019-05-07T10:40:28.884Z,7.85
2019-05-07T10:42:59.279Z,14.73
2019-05-07T10:45:33.971Z,21.68
2019-05-07T10:48:22.275Z,64.00
2019-05-07T10:50:57.200Z,30.23
2019-05-07T10:53:27.915Z,16.25
2019-05-07T10:55:58.857Z,31.48
2019-05-07T10:58:29.105Z,45.95
2019-05-07T11:00:59.407Z,15.15
2019-05-07T11:03:29.655Z,30.23
2019-05-07T11:05:59.865Z,16.65
2019-05-07T11:08:32.721Z,15.70
2019-05-07T11:11:03.167Z,25.45
2019-05-07T11:13:33.859Z,22.60
2019-05-07T11:16:14.553Z,10.95
2019-05-07T11:18:48.628Z,6.42
2019-05-07T11:21:22.274Z,17.55
2019-05-07T11:23:52.562Z,20.37
2019-05-07T11:26:22.957Z,27.00
2019-05-07T11:28:55.596Z,8.80
2019-05-07T11:31:26.093Z,11.80
2019-05-07T11:33:56.601Z,15.53
2019-05-07T11:36:26.909Z,12.98
2019-05-07T11:38:58.830Z,16.20
2019-05-07T11:41:32.814Z,23.30
2019-05-07T11:44:08.176Z,20.00
2019-05-07T11:46:44.450Z,18.25
2019-05-07T11:49:16.660Z,10.68
2019-05-07T11:51:51.730Z,14.95
2019-05-07T11:54:22.392Z,8.83
2019-05-07T11:56:55.497Z,11.63
2019-05-07T11:59:24.978Z,9.60
2019-05-07T12:01:59.839Z,6.37
2019-05-07T12:04:31.999Z,11.50
2019-05-07T12:07:02.795Z,10.60
2019-05-07T12:09:33.503Z,17.07
2019-05-07T12:12:13.724Z,8.23
2019-05-07T12:14:43.996Z,9.23
2019-05-07T12:17:14.600Z,14.73
2019-05-07T12:19:45.255Z,18.37
2019-05-07T12:22:17.252Z,5.75
2019-05-07T12:24:47.551Z,12.58
2019-05-07T12:27:18.181Z,11.25
2019-05-07T12:29:48.863Z,8.70
2019-05-07T12:32:23.826Z,11.73
2019-05-07T12:34:55.800Z,20.77
2019-05-07T12:37:26.121Z,17.02
2019-05-07T12:39:56.442Z,12.55
2019-05-07T12:42:26.769Z,10.35
2019-05-07T12:45:15.372Z,9.70
2019-05-07T12:47:45.625Z,6.15
2019-05-07T12:50:16.246Z,15.15
2019-05-07T12:52:48.411Z,20.62
2019-05-07T12:55:23.457Z,9.80
2019-05-07T12:57:54.118Z,7.75
2019-05-07T13:00:42.839Z,8.98
2019-05-07T13:03:28.127Z,15.32
2019-05-07T13:05:59.375Z,11.40
2019-05-07T13:08:30.345Z,9.35
2019-05-07T13:11:03.034Z,9.95
2019-05-07T13:13:34.111Z,11.38
2019-05-07T13:16:05.065Z,11.30
2019-05-07T13:18:35.749Z,12.58
2019-05-07T13:21:06.523Z,9.85
2019-05-07T13:23:37.241Z,9.28
2019-05-07T13:26:12.814Z,6.28
2019-05-07T13:28:46.274Z,8.68
2019-05-07T13:31:27.985Z,10.65
2019-05-07T13:34:02.921Z,12.05
2019-05-07T13:36:35.303Z,7.50
2019-05-07T13:39:13.732Z,10.78
2019-05-07T13:41:44.276Z,13.10
2019-05-07T13:44:16.600Z,10.13
2019-05-07T13:46:49.477Z,8.15
2019-05-07T13:49:21.818Z,6.92
2019-05-07T13:52:03.565Z,11.45
2019-05-07T13:54:29.919Z,4.22
2019-05-07T13:57:00.650Z,7.55
2019-05-07T13:59:32.322Z,7.47
2019-05-07T14:02:05.045Z,8.38
2019-05-07T14:04:37.938Z,10.25
2019-05-07T14:07:08.648Z,5.10
2019-05-07T14:09:42.046Z,10.38
2019-05-07T14:12:12.602Z,14.85
2019-05-07T14:14:43.223Z,10.70
2019-05-07T14:17:13.836Z,17.05
2019-05-07T14:19:45.671Z,7.90
2019-05-07T14:22:19.056Z,6.33
2019-05-07T14:24:48.264Z,7.40
2019-05-07T14:27:18.951Z,8.95
2019-05-07T14:29:52.360Z,6.55
2019-05-07T14:32:24.594Z,7.70
2019-05-07T14:35:13.367Z,4.45
2019-05-07T14:37:47.592Z,7.72
2019-05-07T14:40:19.942Z,8.15
2019-05-07T14:42:52.575Z,8.85
2019-05-07T14:45:23.893Z,4.65
2019-05-07T14:47:54.365Z,6.97
2019-05-07T14:50:24.585Z,7.47
2019-05-07T14:52:56.864Z,9.70
2019-05-07T14:55:27.333Z,12.63
2019-05-07T14:58:01.879Z,10.72
2019-05-07T15:00:35.182Z,11.25
2019-05-07T15:03:07.126Z,10.43
2019-05-07T15:05:37.508Z,5.10
2019-05-07T15:08:11.154Z,6.20
2019-05-07T15:10:41.830Z,9.03
2019-05-07T15:13:12.844Z,12.73
2019-05-07T15:15:43.636Z,7.62
2019-05-07T15:18:27.612Z,12.07
2019-05-07T15:20:58.241Z,10.03
2019-05-07T15:23:31.476Z,8.33
2019-05-07T15:26:04.740Z,8.70
2019-05-07T15:28:35.932Z,4.65
2019-05-07T15:31:23.915Z,5.50
2019-05-07T15:33:54.498Z,6.40
2019-05-07T15:36:25.020Z,12.93
2019-05-07T15:38:55.323Z,10.28
2019-05-07T15:41:26.035Z,6.00
2019-05-07T15:43:57.057Z,15.93
2019-05-07T15:46:27.433Z,8.58
2019-05-07T15:48:58.072Z,11.70
2019-05-07T15:51:28.681Z,4.28
2019-05-07T15:54:00.641Z,7.55
2019-05-07T15:56:32.372Z,11.75
2019-05-07T15:59:03.042Z,4.62
2019-05-07T16:01:33.330Z,5.58
2019-05-07T16:04:04.106Z,9.33
2019-05-07T16:06:34.822Z,9.88
2019-05-07T16:09:12.970Z,8.85
2019-05-07T16:11:54.771Z,8.95
2019-05-07T16:17:21.760Z,7.03
2019-05-07T16:19:55.186Z,10.32
2019-05-07T16:22:27.530Z,10.72
2019-05-07T16:24:57.833Z,8.43
2019-05-07T16:27:44.699Z,9.70
2019-05-07T16:30:16.769Z,6.90
2019-05-07T16:32:47.017Z,15.20
2019-05-07T16:35:17.553Z,8.38
2019-05-07T16:37:48.147Z,15.58
2019-05-07T16:40:18.720Z,5.85
2019-05-07T16:42:48.962Z,6.08
2019-05-07T16:45:19.458Z,7.80
2019-05-07T16:47:52.145Z,11.12
2019-05-07T16:50:22.997Z,11.85
2019-05-07T16:52:56.621Z,8.95
2019-05-07T16:55:36.844Z,14.40
2019-05-07T16:58:09.042Z,13.75
2019-05-07T17:00:46.729Z,10.88
2019-05-07T17:03:20.676Z,12.95
2019-05-07T17:05:52.448Z,21.30
2019-05-07T17:08:31.893Z,17.35
2019-05-07T17:11:03.052Z,10.90
2019-05-07T17:13:35.085Z,7.53
2019-05-07T17:16:05.741Z,10.48
2019-05-07T17:18:36.016Z,13.90
2019-05-07T17:21:06.619Z,14.65
2019-05-07T17:23:44.051Z,10.90
2019-05-07T17:26:09.248Z,10.70
2019-05-07T17:28:42.589Z,12.40
2019-05-07T17:31:13.176Z,5.78
2019-05-07T17:33:52.113Z,8.48
2019-05-07T17:36:24.047Z,14.85
2019-05-07T17:38:54.273Z,12.55
2019-05-07T17:41:27.170Z,14.45
2019-05-07T17:43:56.832Z,15.98
2019-05-07T17:46:27.707Z,15.50
2019-05-07T17:48:59.793Z,5.65
2019-05-07T17:51:43.878Z,14.05
2019-05-07T17:54:15.439Z,15.35
2019-05-07T17:56:45.757Z,12.07
2019-05-07T17:59:16.094Z,13.43
2019-05-07T18:01:52.908Z,20.43
2019-05-07T18:04:23.445Z,11.80
2019-05-07T18:06:54.056Z,21.97
2019-05-07T18:09:24.739Z,24.47
2019-05-07T18:11:55.347Z,34.55
2019-05-07T18:14:25.942Z,26.97
2019-05-07T18:16:56.412Z,21.23
2019-05-07T18:19:28.763Z,34.65
2019-05-07T18:21:59.412Z,24.12
2019-05-07T18:24:32.415Z,20.75
2019-05-07T18:27:04.907Z,20.43
2019-05-07T18:29:37.204Z,19.45
2019-05-07T18:32:08.656Z,27.02
2019-05-07T18:34:38.933Z,22.02
2019-05-07T18:37:09.280Z,23.83
2019-05-07T18:39:39.536Z,29.87
2019-05-07T18:42:10.002Z,30.90
2019-05-07T18:44:41.695Z,21.42
2019-05-07T18:47:13.435Z,22.73
2019-05-07T18:49:44.838Z,24.98
2019-05-07T18:52:15.813Z,34.83
2019-05-07T18:54:48.401Z,38.63
2019-05-07T18:57:22.183Z,30.75
2019-05-07T18:59:53.294Z,34.48
2019-05-07T19:02:23.926Z,36.23
2019-05-07T19:04:54.401Z,42.67
2019-05-07T19:07:25.232Z,36.17
2019-05-07T19:09:55.709Z,35.13
2019-05-07T19:12:29.468Z,38.10
2019-05-07T19:15:03.110Z,40.17
2019-05-07T19:17:35.135Z,39.98
2019-05-07T19:20:06.539Z,44.67
2019-05-07T19:22:38.044Z,28.98
2019-05-07T19:25:09.418Z,31.70
2019-05-07T19:27:39.710Z,40.40
2019-05-07T19:30:12.703Z,37.40
2019-05-07T19:32:43.462Z,32.33
2019-05-07T19:35:14.833Z,27.22
2019-05-07T19:37:45.618Z,29.90
2019-05-07T19:40:16.119Z,24.23
2019-05-07T19:42:46.363Z,21.73
2019-05-07T19:45:19.076Z,21.82
2019-05-07T19:47:48.874Z,21.35
2019-05-07T19:50:19.255Z,24.77
2019-05-07T19:52:52.206Z,22.15
2019-05-07T19:55:23.927Z,34.40
2019-05-07T19:57:58.742Z,38.33
2019-05-07T20:00:29.061Z,37.38
2019-05-07T20:03:03.382Z,45.55
2019-05-07T20:05:37.288Z,41.55
2019-05-07T20:08:08.146Z,35.10
2019-05-07T20:10:42.113Z,48.73
2019-05-07T20:13:12.718Z,37.25
2019-05-07T20:15:45.937Z,44.50
2019-05-07T20:18:16.216Z,40.50
2019-05-07T20:20:47.030Z,39.48
2019-05-07T20:23:17.492Z,41.63
2019-05-07T20:25:50.033Z,50.88
2019-05-07T20:28:21.804Z,60.17
2019-05-07T20:30:53.665Z,54.58
2019-05-07T20:33:24.581Z,78.60
2019-05-07T20:35:56.410Z,63.87
2019-05-07T20:38:27.111Z,57.88
2019-05-07T20:40:59.599Z,63.50
2019-05-07T20:43:32.670Z,72.17
2019-05-07T20:46:04.846Z,61.28
2019-05-07T20:48:35.745Z,67.60
2019-05-07T20:51:06.651Z,62.23
2019-05-07T20:53:56.348Z,56.58
2019-05-07T20:56:28.562Z,57.00
2019-05-07T20:58:58.763Z,57.38
2019-05-07T21:01:29.018Z,54.18
2019-05-07T21:04:02.104Z,70.65
2019-05-07T21:06:33.177Z,60.33
2019-05-07T21:09:05.612Z,54.13
2019-05-07T21:11:37.549Z,46.02
2019-05-07T21:14:08.142Z,52.90
2019-05-07T21:16:38.757Z,52.38
2019-05-07T21:19:08.969Z,54.35
2019-05-07T21:21:48.789Z,55.03
2019-05-07T21:24:15.802Z,59.73
2019-05-07T21:26:46.128Z,53.98
2019-05-07T21:29:16.682Z,62.70
2019-05-07T21:31:46.959Z,59.65
2019-05-07T21:34:22.816Z,53.00
2019-05-07T21:36:52.387Z,67.50
2019-05-07T21:39:23.275Z,63.87
2019-05-07T21:41:55.499Z,66.05
2019-05-07T21:44:26.156Z,64.20
2019-05-07T21:46:56.866Z,70.47
2019-05-07T21:49:27.515Z,69.58
2019-05-07T21:51:59.349Z,79.42
2019-05-07T21:54:34.126Z,76.42
2019-05-07T21:57:05.999Z,71.85
2019-05-07T21:59:38.943Z,49.20
2019-05-07T22:02:22.061Z,58.52
2019-05-07T22:04:52.932Z,59.42
2019-05-07T22:07:27.239Z,55.63
2019-05-07T22:09:56.442Z,52.55
2019-05-07T22:12:29.491Z,65.17
2019-05-07T22:15:04.224Z,47.55
2019-05-07T22:20:26.101Z,50.17
2019-05-07T22:23:06.912Z,52.43
2019-05-07T22:27:28.631Z,53.17
2019-05-07T22:28:48.114Z,60.17
2019-05-07T22:31:44.257Z,52.88
2019-05-07T22:34:30.675Z,47.83
2019-05-07T22:37:03.212Z,45.65
2019-05-07T22:46:02.737Z,52.17
2019-05-07T22:48:33.305Z,56.45
2019-05-07T22:51:03.942Z,57.67
2019-05-07T22:53:37.714Z,56.80
2019-05-07T22:56:08.357Z,50.10
2019-05-07T22:58:43.297Z,47.03
2019-05-07T23:01:19.383Z,59.13
2019-05-07T23:03:54.075Z,61.85
2019-05-07T23:06:24.838Z,61.13
2019-05-07T23:08:58.300Z,54.45
2019-05-07T23:11:28.989Z,54.95
2019-05-07T23:13:59.631Z,60.23
2019-05-07T23:16:32.412Z,60.85
2019-05-07T23:19:02.848Z,55.10
2019-05-07T23:21:33.996Z,57.03
2019-05-07T23:24:04.254Z,62.78
2019-05-07T23:26:47.302Z,65.42
2019-05-07T23:29:06.833Z,60.45
2019-05-07T23:31:37.202Z,61.95
2019-05-07T23:34:07.443Z,75.45
2019-05-07T23:36:37.764Z,72.40
2019-05-07T23:39:11.930Z,67.27
2019-05-07T23:44:15.691Z,71.95
2019-05-07T23:46:46.006Z,59.48
2019-05-07T23:49:16.479Z,66.50
2019-05-07T23:51:48.214Z,62.20
2019-05-07T23:54:18.530Z,62.05
2019-05-07T23:57:02.922Z,56.23
2019-05-07T23:59:22.187Z,59.67
